Strona główna
METAR-TAF:

METAR-TAF

Lotnisko :

Port lotniczy Recife

Recife, Pernambuco, Brazylia

Szerokość geograficzna: 08-08S, Długość geograficzna: 034-55W, wysokość: 19 m

Aktualna obserwacja pogody

Raport powstał 58 minut temu, godzina 03:00 UTC
Wiatr 8 kt od południowy wschód
Temperatura 26°C
Wilgotność 79%
Ciśnienie 1014 hPa
Widzialność 10 km lub więcej
Rozproszone chmury na wysokości 2100 ft
Rozproszone chmury na wysokości 5000 ft

METAR: SBRF 240300Z 13008KT 9999 SCT021 SCT050 26/22 Q1014

czas: 00:58 (03:58 UTC)

Prognoza

Raport powstał 5 godziny i 58 minut temu, godzina 22:00 UTC
Prognoza ważna od 24 godzina 00 UTC do 24 godzina 24 UTC
Wiatr 6 kt od południowy wschód
Widzialność: 8000 m
Rozproszone chmury na wysokości 2200 ft
Przejściowo
od 24 godzina 18 UTC do 24 godzina 20 UTC
Widzialność: 5000 m
Przerywane chmury na wysokości 2000 ft
przelotny opad deszczu

TAF: SBRF 232200Z 2400/2424 14006KT 8000 SCT022 TN24/2408Z TX28/2414Z TEMPO 2418/2420 5000 SHRA BKN020 RMK PEA

Obserwacja i prognoza pogody dla ponad 4000 lotnisk (raport METAR i TAF).

Dostępne stacje oznaczono żółtymi i czerwonymi punktami na mapie.

Najedź kursorem aby zobaczyć nazwę stacji.

Kliknij aby zobaczyć obserwacje i prognozy pogody.

Aby zmienić mapę: kliknij na zielony przycisk z czarnym krzyżykiem, aby powiększyć; na zielony przycisk z myślnikiem, aby pomniejszyć; na zielone strzałki, aby przejść do map sąsiednich.


METAR-TAF: